sensor_id;sensor_type;location;lat;lon;timestamp;P1;durP1;ratioP1;P2;durP2;ratioP2
21697;SDS011;11010;49.548;11.926;2023-06-14T00:02:01;9.23;;;2.58;;
21697;SDS011;11010;49.548;11.926;2023-06-14T00:04:30;7.95;;;2.40;;
21697;SDS011;11010;49.548;11.926;2023-06-14T00:06:58;7.15;;;2.30;;
21697;SDS011;11010;49.548;11.926;2023-06-14T00:09:26;7.60;;;2.40;;
21697;SDS011;11010;49.548;11.926;2023-06-14T00:11:54;8.10;;;2.40;;
21697;SDS011;11010;49.548;11.926;2023-06-14T00:14:21;7.30;;;2.30;;
21697;SDS011;11010;49.548;11.926;2023-06-14T00:16:49;7.68;;;2.33;;
21697;SDS011;11010;49.548;11.926;2023-06-14T00:19:20;7.40;;;2.20;;
21697;SDS011;11010;49.548;11.926;2023-06-14T00:21:47;10.75;;;2.47;;
21697;SDS011;11010;49.548;11.926;2023-06-14T00:24:15;7.38;;;2.42;;
21697;SDS011;11010;49.548;11.926;2023-06-14T00:26:43;6.72;;;2.28;;
21697;SDS011;11010;49.548;11.926;2023-06-14T00:29:11;7.15;;;2.30;;
21697;SDS011;11010;49.548;11.926;2023-06-14T00:31:39;7.70;;;2.50;;
21697;SDS011;11010;49.548;11.926;2023-06-14T00:34:07;8.10;;;2.17;;
21697;SDS011;11010;49.548;11.926;2023-06-14T00:36:36;6.97;;;2.47;;
21697;SDS011;11010;49.548;11.926;2023-06-14T00:39:03;8.30;;;2.50;;
21697;SDS011;11010;49.548;11.926;2023-06-14T00:41:31;8.05;;;2.28;;
21697;SDS011;11010;49.548;11.926;2023-06-14T00:43:59;7.25;;;2.55;;
21697;SDS011;11010;49.548;11.926;2023-06-14T00:46:27;7.68;;;2.20;;
21697;SDS011;11010;49.548;11.926;2023-06-14T00:48:56;9.45;;;2.50;;
21697;SDS011;11010;49.548;11.926;2023-06-14T00:51:24;7.72;;;2.40;;
21697;SDS011;11010;49.548;11.926;2023-06-14T00:53:53;7.43;;;2.58;;
21697;SDS011;11010;49.548;11.926;2023-06-14T00:56:22;7.30;;;2.42;;
21697;SDS011;11010;49.548;11.926;2023-06-14T00:58:51;10.38;;;2.38;;
21697;SDS011;11010;49.548;11.926;2023-06-14T01:01:19;8.38;;;2.53;;
21697;SDS011;11010;49.548;11.926;2023-06-14T01:03:47;6.95;;;2.30;;
21697;SDS011;11010;49.548;11.926;2023-06-14T01:11:31;7.70;;;2.60;;
21697;SDS011;11010;49.548;11.926;2023-06-14T01:14:00;7.22;;;2.42;;
21697;SDS011;11010;49.548;11.926;2023-06-14T01:16:30;7.57;;;2.50;;
21697;SDS011;11010;49.548;11.926;2023-06-14T01:18:58;8.68;;;2.65;;
21697;SDS011;11010;49.548;11.926;2023-06-14T01:21:28;8.10;;;2.35;;
21697;SDS011;11010;49.548;11.926;2023-06-14T01:23:56;8.00;;;2.45;;
21697;SDS011;11010;49.548;11.926;2023-06-14T01:26:25;8.10;;;2.42;;
21697;SDS011;11010;49.548;11.926;2023-06-14T01:28:58;8.07;;;2.47;;
21697;SDS011;11010;49.548;11.926;2023-06-14T01:31:26;8.70;;;2.75;;
21697;SDS011;11010;49.548;11.926;2023-06-14T01:33:56;7.10;;;2.22;;
21697;SDS011;11010;49.548;11.926;2023-06-14T01:36:24;7.63;;;2.22;;
21697;SDS011;11010;49.548;11.926;2023-06-14T01:38:56;7.50;;;2.13;;
21697;SDS011;11010;49.548;11.926;2023-06-14T01:41:26;9.52;;;2.28;;
21697;SDS011;11010;49.548;11.926;2023-06-14T01:43:54;8.40;;;2.60;;
21697;SDS011;11010;49.548;11.926;2023-06-14T01:46:23;7.45;;;2.40;;
21697;SDS011;11010;49.548;11.926;2023-06-14T01:48:53;8.20;;;2.40;;
21697;SDS011;11010;49.548;11.926;2023-06-14T01:51:21;7.50;;;2.45;;
21697;SDS011;11010;49.548;11.926;2023-06-14T01:53:48;7.82;;;2.47;;
21697;SDS011;11010;49.548;11.926;2023-06-14T01:56:16;7.63;;;2.60;;
21697;SDS011;11010;49.548;11.926;2023-06-14T01:58:47;7.18;;;2.33;;
21697;SDS011;11010;49.548;11.926;2023-06-14T02:01:15;7.35;;;2.35;;
21697;SDS011;11010;49.548;11.926;2023-06-14T02:03:44;7.50;;;2.55;;
21697;SDS011;11010;49.548;11.926;2023-06-14T02:06:15;9.57;;;2.33;;
21697;SDS011;11010;49.548;11.926;2023-06-14T02:08:42;6.88;;;2.30;;
21697;SDS011;11010;49.548;11.926;2023-06-14T02:11:10;7.97;;;2.63;;
21697;SDS011;11010;49.548;11.926;2023-06-14T02:13:38;7.72;;;2.70;;
21697;SDS011;11010;49.548;11.926;2023-06-14T02:16:06;7.68;;;2.58;;
21697;SDS011;11010;49.548;11.926;2023-06-14T02:18:34;8.50;;;2.55;;
21697;SDS011;11010;49.548;11.926;2023-06-14T02:21:02;7.75;;;2.60;;
21697;SDS011;11010;49.548;11.926;2023-06-14T02:23:29;7.03;;;2.50;;
21697;SDS011;11010;49.548;11.926;2023-06-14T02:26:01;7.63;;;2.30;;
21697;SDS011;11010;49.548;11.926;2023-06-14T02:32:30;7.57;;;2.65;;
21697;SDS011;11010;49.548;11.926;2023-06-14T02:34:58;8.50;;;2.70;;
21697;SDS011;11010;49.548;11.926;2023-06-14T02:37:26;8.23;;;2.67;;
21697;SDS011;11010;49.548;11.926;2023-06-14T02:39:53;8.68;;;2.45;;
21697;SDS011;11010;49.548;11.926;2023-06-14T02:42:22;7.68;;;2.42;;
21697;SDS011;11010;49.548;11.926;2023-06-14T02:44:50;7.60;;;2.72;;
21697;SDS011;11010;49.548;11.926;2023-06-14T02:47:20;8.30;;;2.90;;
21697;SDS011;11010;49.548;11.926;2023-06-14T02:49:47;8.20;;;2.55;;
21697;SDS011;11010;49.548;11.926;2023-06-14T02:52:15;7.95;;;2.70;;
21697;SDS011;11010;49.548;11.926;2023-06-14T02:54:43;7.47;;;2.58;;
21697;SDS011;11010;49.548;11.926;2023-06-14T02:57:10;8.68;;;2.80;;
21697;SDS011;11010;49.548;11.926;2023-06-14T02:59:40;9.70;;;2.70;;
21697;SDS011;11010;49.548;11.926;2023-06-14T03:02:07;9.15;;;2.60;;
21697;SDS011;11010;49.548;11.926;2023-06-14T03:04:36;7.00;;;2.40;;
21697;SDS011;11010;49.548;11.926;2023-06-14T03:07:13;7.68;;;2.70;;
21697;SDS011;11010;49.548;11.926;2023-06-14T03:09:49;8.50;;;3.03;;
21697;SDS011;11010;49.548;11.926;2023-06-14T03:12:17;8.88;;;2.70;;
21697;SDS011;11010;49.548;11.926;2023-06-14T03:14:45;8.95;;;2.85;;
21697;SDS011;11010;49.548;11.926;2023-06-14T03:17:15;7.53;;;2.80;;
21697;SDS011;11010;49.548;11.926;2023-06-14T03:19:44;9.38;;;2.78;;
21697;SDS011;11010;49.548;11.926;2023-06-14T03:22:14;7.88;;;2.47;;
21697;SDS011;11010;49.548;11.926;2023-06-14T03:24:42;7.85;;;2.65;;
21697;SDS011;11010;49.548;11.926;2023-06-14T03:27:13;8.48;;;2.95;;
21697;SDS011;11010;49.548;11.926;2023-06-14T03:29:44;8.02;;;2.97;;
21697;SDS011;11010;49.548;11.926;2023-06-14T03:32:12;10.25;;;3.25;;
21697;SDS011;11010;49.548;11.926;2023-06-14T03:34:41;7.90;;;2.97;;
21697;SDS011;11010;49.548;11.926;2023-06-14T03:37:18;7.18;;;2.78;;
21697;SDS011;11010;49.548;11.926;2023-06-14T03:39:46;8.40;;;3.13;;
21697;SDS011;11010;49.548;11.926;2023-06-14T03:42:19;7.63;;;2.92;;
21697;SDS011;11010;49.548;11.926;2023-06-14T03:44:47;8.18;;;3.08;;
21697;SDS011;11010;49.548;11.926;2023-06-14T03:47:18;7.55;;;2.90;;
21697;SDS011;11010;49.548;11.926;2023-06-14T03:49:46;7.30;;;2.70;;
21697;SDS011;11010;49.548;11.926;2023-06-14T03:52:14;7.90;;;3.03;;
21697;SDS011;11010;49.548;11.926;2023-06-14T03:54:45;8.13;;;3.13;;
21697;SDS011;11010;49.548;11.926;2023-06-14T03:57:17;7.90;;;2.97;;
21697;SDS011;11010;49.548;11.926;2023-06-14T03:59:47;8.88;;;3.10;;
21697;SDS011;11010;49.548;11.926;2023-06-14T04:02:14;8.57;;;3.00;;
21697;SDS011;11010;49.548;11.926;2023-06-14T04:04:43;8.68;;;3.17;;
21697;SDS011;11010;49.548;11.926;2023-06-14T04:07:12;9.38;;;3.30;;
21697;SDS011;11010;49.548;11.926;2023-06-14T04:09:40;8.18;;;2.90;;
21697;SDS011;11010;49.548;11.926;2023-06-14T04:12:07;7.88;;;3.13;;
21697;SDS011;11010;49.548;11.926;2023-06-14T04:14:36;9.20;;;3.40;;
21697;SDS011;11010;49.548;11.926;2023-06-14T04:17:03;8.68;;;3.60;;
21697;SDS011;11010;49.548;11.926;2023-06-14T04:19:32;8.85;;;3.38;;
21697;SDS011;11010;49.548;11.926;2023-06-14T04:21:59;8.50;;;3.35;;
21697;SDS011;11010;49.548;11.926;2023-06-14T04:24:32;9.20;;;3.13;;
21697;SDS011;11010;49.548;11.926;2023-06-14T04:27:01;9.88;;;3.50;;
21697;SDS011;11010;49.548;11.926;2023-06-14T04:40:18;10.52;;;3.58;;
21697;SDS011;11010;49.548;11.926;2023-06-14T04:42:46;9.98;;;3.60;;
21697;SDS011;11010;49.548;11.926;2023-06-14T04:45:17;8.40;;;3.60;;
21697;SDS011;11010;49.548;11.926;2023-06-14T04:47:45;9.18;;;3.20;;
21697;SDS011;11010;49.548;11.926;2023-06-14T04:50:14;10.00;;;3.50;;
21697;SDS011;11010;49.548;11.926;2023-06-14T04:52:43;11.27;;;3.42;;
21697;SDS011;11010;49.548;11.926;2023-06-14T04:55:10;9.48;;;3.58;;
21697;SDS011;11010;49.548;11.926;2023-06-14T04:57:38;9.55;;;3.30;;
21697;SDS011;11010;49.548;11.926;2023-06-14T05:00:08;8.73;;;3.30;;
21697;SDS011;11010;49.548;11.926;2023-06-14T05:02:38;8.35;;;3.30;;
21697;SDS011;11010;49.548;11.926;2023-06-14T05:05:07;9.05;;;3.50;;
21697;SDS011;11010;49.548;11.926;2023-06-14T05:07:35;8.48;;;2.97;;
21697;SDS011;11010;49.548;11.926;2023-06-14T05:10:07;8.10;;;2.97;;
21697;SDS011;11010;49.548;11.926;2023-06-14T05:12:35;8.70;;;3.25;;
21697;SDS011;11010;49.548;11.926;2023-06-14T05:15:05;8.70;;;3.40;;
21697;SDS011;11010;49.548;11.926;2023-06-14T05:17:32;9.05;;;3.35;;
21697;SDS011;11010;49.548;11.926;2023-06-14T05:20:01;8.80;;;3.45;;
21697;SDS011;11010;49.548;11.926;2023-06-14T05:22:29;8.88;;;3.10;;
21697;SDS011;11010;49.548;11.926;2023-06-14T05:24:56;9.65;;;3.60;;
21697;SDS011;11010;49.548;11.926;2023-06-14T05:27:24;9.07;;;3.10;;
21697;SDS011;11010;49.548;11.926;2023-06-14T05:29:51;8.63;;;2.83;;
21697;SDS011;11010;49.548;11.926;2023-06-14T05:32:22;8.98;;;3.40;;
21697;SDS011;11010;49.548;11.926;2023-06-14T05:34:49;10.95;;;3.40;;
21697;SDS011;11010;49.548;11.926;2023-06-14T05:37:17;8.38;;;2.90;;
21697;SDS011;11010;49.548;11.926;2023-06-14T05:39:45;9.07;;;3.28;;
21697;SDS011;11010;49.548;11.926;2023-06-14T05:42:12;9.43;;;3.25;;
21697;SDS011;11010;49.548;11.926;2023-06-14T05:44:39;10.05;;;3.35;;
21697;SDS011;11010;49.548;11.926;2023-06-14T05:47:07;8.48;;;2.95;;
21697;SDS011;11010;49.548;11.926;2023-06-14T05:49:35;8.68;;;3.58;;
21697;SDS011;11010;49.548;11.926;2023-06-14T05:52:02;9.35;;;3.00;;
21697;SDS011;11010;49.548;11.926;2023-06-14T05:54:30;8.77;;;3.00;;
21697;SDS011;11010;49.548;11.926;2023-06-14T05:56:57;9.98;;;3.10;;
21697;SDS011;11010;49.548;11.926;2023-06-14T05:59:28;7.68;;;2.88;;
21697;SDS011;11010;49.548;11.926;2023-06-14T06:01:55;9.77;;;3.10;;
21697;SDS011;11010;49.548;11.926;2023-06-14T06:04:23;8.63;;;3.17;;
21697;SDS011;11010;49.548;11.926;2023-06-14T06:06:51;9.43;;;2.78;;
21697;SDS011;11010;49.548;11.926;2023-06-14T06:09:18;8.40;;;3.08;;
21697;SDS011;11010;49.548;11.926;2023-06-14T06:11:46;8.60;;;3.00;;
21697;SDS011;11010;49.548;11.926;2023-06-14T06:14:18;8.10;;;2.83;;
21697;SDS011;11010;49.548;11.926;2023-06-14T06:16:46;8.10;;;3.20;;
21697;SDS011;11010;49.548;11.926;2023-06-14T06:19:14;9.20;;;3.03;;
21697;SDS011;11010;49.548;11.926;2023-06-14T06:25:17;8.70;;;3.10;;
21697;SDS011;11010;49.548;11.926;2023-06-14T06:27:45;8.65;;;3.00;;
21697;SDS011;11010;49.548;11.926;2023-06-14T06:30:13;8.52;;;3.33;;
21697;SDS011;11010;49.548;11.926;2023-06-14T06:32:40;8.43;;;2.72;;
21697;SDS011;11010;49.548;11.926;2023-06-14T06:35:08;9.23;;;2.95;;
21697;SDS011;11010;49.548;11.926;2023-06-14T06:37:38;7.15;;;2.75;;
21697;SDS011;11010;49.548;11.926;2023-06-14T06:40:06;10.25;;;3.30;;
21697;SDS011;11010;49.548;11.926;2023-06-14T06:42:34;8.75;;;3.08;;
21697;SDS011;11010;49.548;11.926;2023-06-14T06:45:13;8.52;;;2.90;;
21697;SDS011;11010;49.548;11.926;2023-06-14T06:47:41;11.15;;;3.00;;
21697;SDS011;11010;49.548;11.926;2023-06-14T06:50:09;8.32;;;3.05;;
21697;SDS011;11010;49.548;11.926;2023-06-14T06:52:36;9.77;;;3.38;;
21697;SDS011;11010;49.548;11.926;2023-06-14T06:55:04;8.70;;;3.10;;
21697;SDS011;11010;49.548;11.926;2023-06-14T06:57:31;8.38;;;3.10;;
21697;SDS011;11010;49.548;11.926;2023-06-14T06:59:58;8.30;;;2.95;;
21697;SDS011;11010;49.548;11.926;2023-06-14T07:02:26;7.82;;;2.80;;
21697;SDS011;11010;49.548;11.926;2023-06-14T07:04:54;7.95;;;2.85;;
21697;SDS011;11010;49.548;11.926;2023-06-14T07:07:21;9.00;;;2.55;;
21697;SDS011;11010;49.548;11.926;2023-06-14T07:09:49;10.05;;;3.13;;
21697;SDS011;11010;49.548;11.926;2023-06-14T07:12:17;8.40;;;2.63;;
21697;SDS011;11010;49.548;11.926;2023-06-14T07:14:44;8.25;;;2.60;;
21697;SDS011;11010;49.548;11.926;2023-06-14T07:17:12;8.57;;;2.90;;
21697;SDS011;11010;49.548;11.926;2023-06-14T07:19:40;10.18;;;3.08;;
21697;SDS011;11010;49.548;11.926;2023-06-14T07:22:09;8.00;;;2.80;;
21697;SDS011;11010;49.548;11.926;2023-06-14T07:24:36;9.52;;;2.70;;
21697;SDS011;11010;49.548;11.926;2023-06-14T07:27:04;8.98;;;2.60;;
21697;SDS011;11010;49.548;11.926;2023-06-14T07:29:32;8.10;;;2.90;;
21697;SDS011;11010;49.548;11.926;2023-06-14T07:31:59;10.48;;;3.00;;
21697;SDS011;11010;49.548;11.926;2023-06-14T07:34:27;8.05;;;2.67;;
21697;SDS011;11010;49.548;11.926;2023-06-14T07:36:54;9.13;;;2.70;;
21697;SDS011;11010;49.548;11.926;2023-06-14T07:39:22;7.57;;;3.00;;
21697;SDS011;11010;49.548;11.926;2023-06-14T07:41:49;10.15;;;2.70;;
21697;SDS011;11010;49.548;11.926;2023-06-14T07:44:17;8.43;;;2.67;;
21697;SDS011;11010;49.548;11.926;2023-06-14T07:46:44;8.32;;;2.80;;
21697;SDS011;11010;49.548;11.926;2023-06-14T07:49:15;7.95;;;2.72;;
21697;SDS011;11010;49.548;11.926;2023-06-14T07:51:43;7.85;;;2.70;;
21697;SDS011;11010;49.548;11.926;2023-06-14T07:54:12;8.02;;;2.60;;
21697;SDS011;11010;49.548;11.926;2023-06-14T07:56:40;7.85;;;2.78;;
21697;SDS011;11010;49.548;11.926;2023-06-14T07:59:10;7.93;;;2.65;;
21697;SDS011;11010;49.548;11.926;2023-06-14T08:01:38;8.20;;;2.50;;
21697;SDS011;11010;49.548;11.926;2023-06-14T08:04:06;8.93;;;2.60;;
21697;SDS011;11010;49.548;11.926;2023-06-14T08:06:33;7.60;;;2.50;;
21697;SDS011;11010;49.548;11.926;2023-06-14T08:09:01;7.70;;;2.65;;
21697;SDS011;11010;49.548;11.926;2023-06-14T08:11:28;8.30;;;2.78;;
21697;SDS011;11010;49.548;11.926;2023-06-14T08:13:56;8.98;;;2.53;;
21697;SDS011;11010;49.548;11.926;2023-06-14T08:16:24;9.85;;;2.70;;
21697;SDS011;11010;49.548;11.926;2023-06-14T08:18:51;9.10;;;2.70;;
21697;SDS011;11010;49.548;11.926;2023-06-14T08:21:19;7.47;;;2.70;;
21697;SDS011;11010;49.548;11.926;2023-06-14T08:23:46;8.02;;;2.58;;
21697;SDS011;11010;49.548;11.926;2023-06-14T08:26:15;7.93;;;2.63;;
21697;SDS011;11010;49.548;11.926;2023-06-14T08:28:42;8.40;;;2.58;;
21697;SDS011;11010;49.548;11.926;2023-06-14T08:31:10;9.27;;;2.80;;
21697;SDS011;11010;49.548;11.926;2023-06-14T08:33:37;8.82;;;2.70;;
21697;SDS011;11010;49.548;11.926;2023-06-14T08:36:09;8.70;;;2.72;;
21697;SDS011;11010;49.548;11.926;2023-06-14T08:38:38;8.32;;;2.80;;
21697;SDS011;11010;49.548;11.926;2023-06-14T08:41:06;8.13;;;2.60;;
21697;SDS011;11010;49.548;11.926;2023-06-14T08:43:34;7.15;;;2.42;;
21697;SDS011;11010;49.548;11.926;2023-06-14T08:46:03;8.13;;;2.63;;
21697;SDS011;11010;49.548;11.926;2023-06-14T08:48:30;8.88;;;2.70;;
21697;SDS011;11010;49.548;11.926;2023-06-14T08:51:01;8.88;;;2.50;;
21697;SDS011;11010;49.548;11.926;2023-06-14T08:53:32;7.43;;;2.63;;
21697;SDS011;11010;49.548;11.926;2023-06-14T08:56:04;9.60;;;2.63;;
21697;SDS011;11010;49.548;11.926;2023-06-14T08:58:34;8.18;;;2.60;;
21697;SDS011;11010;49.548;11.926;2023-06-14T09:01:02;8.02;;;2.80;;
21697;SDS011;11010;49.548;11.926;2023-06-14T09:03:30;7.38;;;2.88;;
21697;SDS011;11010;49.548;11.926;2023-06-14T09:05:59;7.93;;;2.45;;
21697;SDS011;11010;49.548;11.926;2023-06-14T09:08:27;8.40;;;2.70;;
21697;SDS011;11010;49.548;11.926;2023-06-14T09:10:57;7.63;;;2.58;;
21697;SDS011;11010;49.548;11.926;2023-06-14T09:13:26;7.75;;;2.35;;
21697;SDS011;11010;49.548;11.926;2023-06-14T09:15:57;8.07;;;2.67;;
21697;SDS011;11010;49.548;11.926;2023-06-14T09:18:33;7.72;;;2.97;;
21697;SDS011;11010;49.548;11.926;2023-06-14T09:21:01;7.75;;;2.67;;
21697;SDS011;11010;49.548;11.926;2023-06-14T09:23:29;7.85;;;2.55;;
21697;SDS011;11010;49.548;11.926;2023-06-14T09:25:57;8.93;;;2.83;;
21697;SDS011;11010;49.548;11.926;2023-06-14T09:28:27;7.75;;;2.60;;
21697;SDS011;11010;49.548;11.926;2023-06-14T09:30:55;7.85;;;2.70;;
21697;SDS011;11010;49.548;11.926;2023-06-14T09:33:24;8.95;;;2.90;;
21697;SDS011;11010;49.548;11.926;2023-06-14T09:35:54;8.38;;;2.70;;
21697;SDS011;11010;49.548;11.926;2023-06-14T09:38:21;9.13;;;3.03;;
21697;SDS011;11010;49.548;11.926;2023-06-14T09:40:49;8.52;;;2.72;;
21697;SDS011;11010;49.548;11.926;2023-06-14T09:43:17;8.35;;;2.90;;
21697;SDS011;11010;49.548;11.926;2023-06-14T09:45:45;7.60;;;2.75;;
21697;SDS011;11010;49.548;11.926;2023-06-14T09:48:13;9.32;;;2.30;;
21697;SDS011;11010;49.548;11.926;2023-06-14T09:50:45;7.32;;;2.58;;
21697;SDS011;11010;49.548;11.926;2023-06-14T09:53:15;7.20;;;2.58;;
21697;SDS011;11010;49.548;11.926;2023-06-14T09:55:45;7.00;;;2.50;;
21697;SDS011;11010;49.548;11.926;2023-06-14T09:58:14;8.60;;;2.60;;
21697;SDS011;11010;49.548;11.926;2023-06-14T10:00:43;7.85;;;2.83;;
21697;SDS011;11010;49.548;11.926;2023-06-14T10:03:12;7.38;;;2.72;;
21697;SDS011;11010;49.548;11.926;2023-06-14T10:05:41;8.90;;;3.00;;
21697;SDS011;11010;49.548;11.926;2023-06-14T10:08:12;8.85;;;2.63;;
21697;SDS011;11010;49.548;11.926;2023-06-14T10:10:42;8.90;;;2.70;;
21697;SDS011;11010;49.548;11.926;2023-06-14T10:13:11;8.18;;;2.60;;
21697;SDS011;11010;49.548;11.926;2023-06-14T10:15:48;7.93;;;2.65;;
21697;SDS011;11010;49.548;11.926;2023-06-14T10:21:04;7.20;;;2.40;;
21697;SDS011;11010;49.548;11.926;2023-06-14T10:23:37;9.05;;;2.97;;
21697;SDS011;11010;49.548;11.926;2023-06-14T10:26:05;8.48;;;2.60;;
21697;SDS011;11010;49.548;11.926;2023-06-14T10:28:32;8.82;;;2.80;;
21697;SDS011;11010;49.548;11.926;2023-06-14T10:31:10;10.35;;;2.45;;
21697;SDS011;11010;49.548;11.926;2023-06-14T10:33:49;7.45;;;2.58;;
21697;SDS011;11010;49.548;11.926;2023-06-14T10:39:07;8.60;;;2.70;;
21697;SDS011;11010;49.548;11.926;2023-06-14T10:41:36;7.65;;;2.75;;
21697;SDS011;11010;49.548;11.926;2023-06-14T10:46:45;8.82;;;2.55;;
21697;SDS011;11010;49.548;11.926;2023-06-14T10:49:16;7.80;;;2.83;;
21697;SDS011;11010;49.548;11.926;2023-06-14T10:51:50;7.82;;;2.40;;
21697;SDS011;11010;49.548;11.926;2023-06-14T10:54:21;10.13;;;2.63;;
21697;SDS011;11010;49.548;11.926;2023-06-14T10:56:50;8.07;;;2.40;;
21697;SDS011;11010;49.548;11.926;2023-06-14T10:59:19;7.38;;;2.50;;
21697;SDS011;11010;49.548;11.926;2023-06-14T11:04:49;7.70;;;2.40;;
21697;SDS011;11010;49.548;11.926;2023-06-14T11:07:28;7.55;;;2.58;;
21697;SDS011;11010;49.548;11.926;2023-06-14T11:12:47;8.25;;;2.60;;
21697;SDS011;11010;49.548;11.926;2023-06-14T11:15:15;7.53;;;2.63;;
21697;SDS011;11010;49.548;11.926;2023-06-14T11:17:49;7.45;;;2.55;;
21697;SDS011;11010;49.548;11.926;2023-06-14T11:20:19;8.38;;;2.45;;
21697;SDS011;11010;49.548;11.926;2023-06-14T11:22:50;9.18;;;2.50;;
21697;SDS011;11010;49.548;11.926;2023-06-14T11:25:18;9.18;;;2.60;;
21697;SDS011;11010;49.548;11.926;2023-06-14T11:27:45;8.50;;;2.70;;
21697;SDS011;11010;49.548;11.926;2023-06-14T11:30:13;8.27;;;2.78;;
21697;SDS011;11010;49.548;11.926;2023-06-14T11:32:41;8.32;;;2.35;;
21697;SDS011;11010;49.548;11.926;2023-06-14T11:35:09;7.28;;;2.08;;
21697;SDS011;11010;49.548;11.926;2023-06-14T11:37:36;9.40;;;2.40;;
21697;SDS011;11010;49.548;11.926;2023-06-14T11:40:08;7.65;;;2.38;;
21697;SDS011;11010;49.548;11.926;2023-06-14T11:42:36;7.88;;;2.60;;
21697;SDS011;11010;49.548;11.926;2023-06-14T11:45:07;7.30;;;2.60;;
21697;SDS011;11010;49.548;11.926;2023-06-14T11:47:36;7.85;;;2.60;;
21697;SDS011;11010;49.548;11.926;2023-06-14T11:50:05;7.25;;;2.53;;
21697;SDS011;11010;49.548;11.926;2023-06-14T11:52:33;8.43;;;2.53;;
21697;SDS011;11010;49.548;11.926;2023-06-14T11:55:00;9.52;;;2.80;;
21697;SDS011;11010;49.548;11.926;2023-06-14T11:57:33;10.65;;;2.63;;
21697;SDS011;11010;49.548;11.926;2023-06-14T12:00:03;7.32;;;2.50;;
21697;SDS011;11010;49.548;11.926;2023-06-14T12:02:36;7.57;;;2.50;;
21697;SDS011;11010;49.548;11.926;2023-06-14T12:05:05;8.10;;;2.83;;
21697;SDS011;11010;49.548;11.926;2023-06-14T12:07:37;9.27;;;2.50;;
21697;SDS011;11010;49.548;11.926;2023-06-14T12:10:09;8.57;;;2.30;;
21697;SDS011;11010;49.548;11.926;2023-06-14T12:12:37;7.05;;;2.38;;
21697;SDS011;11010;49.548;11.926;2023-06-14T12:15:08;9.85;;;2.67;;
21697;SDS011;11010;49.548;11.926;2023-06-14T12:17:39;7.55;;;2.63;;
21697;SDS011;11010;49.548;11.926;2023-06-14T12:20:09;7.88;;;2.60;;
21697;SDS011;11010;49.548;11.926;2023-06-14T12:22:52;7.20;;;2.50;;
21697;SDS011;11010;49.548;11.926;2023-06-14T12:25:27;8.73;;;2.55;;
21697;SDS011;11010;49.548;11.926;2023-06-14T12:27:55;7.60;;;2.40;;
21697;SDS011;11010;49.548;11.926;2023-06-14T12:30:22;7.53;;;2.45;;
21697;SDS011;11010;49.548;11.926;2023-06-14T12:32:50;7.82;;;2.50;;
21697;SDS011;11010;49.548;11.926;2023-06-14T12:35:18;7.07;;;2.40;;
21697;SDS011;11010;49.548;11.926;2023-06-14T12:37:46;6.60;;;2.22;;
21697;SDS011;11010;49.548;11.926;2023-06-14T12:40:13;6.82;;;2.47;;
21697;SDS011;11010;49.548;11.926;2023-06-14T12:42:41;7.30;;;2.20;;
21697;SDS011;11010;49.548;11.926;2023-06-14T12:45:09;7.10;;;2.30;;
21697;SDS011;11010;49.548;11.926;2023-06-14T12:47:37;7.72;;;2.30;;
21697;SDS011;11010;49.548;11.926;2023-06-14T12:50:05;6.47;;;2.08;;
21697;SDS011;11010;49.548;11.926;2023-06-14T12:52:33;7.15;;;2.10;;
21697;SDS011;11010;49.548;11.926;2023-06-14T12:55:04;7.20;;;2.15;;
21697;SDS011;11010;49.548;11.926;2023-06-14T12:57:31;6.95;;;2.08;;
21697;SDS011;11010;49.548;11.926;2023-06-14T12:59:59;6.07;;;2.15;;
21697;SDS011;11010;49.548;11.926;2023-06-14T13:02:27;9.13;;;2.35;;
21697;SDS011;11010;49.548;11.926;2023-06-14T13:04:55;7.05;;;2.25;;
21697;SDS011;11010;49.548;11.926;2023-06-14T13:07:24;7.20;;;2.30;;
21697;SDS011;11010;49.548;11.926;2023-06-14T13:09:52;8.00;;;2.30;;
21697;SDS011;11010;49.548;11.926;2023-06-14T13:12:19;6.85;;;2.10;;
21697;SDS011;11010;49.548;11.926;2023-06-14T13:14:47;7.70;;;2.33;;
21697;SDS011;11010;49.548;11.926;2023-06-14T13:17:14;6.95;;;1.95;;
21697;SDS011;11010;49.548;11.926;2023-06-14T13:19:42;7.65;;;2.08;;
21697;SDS011;11010;49.548;11.926;2023-06-14T13:22:09;8.43;;;2.17;;
21697;SDS011;11010;49.548;11.926;2023-06-14T13:24:37;6.80;;;2.15;;
21697;SDS011;11010;49.548;11.926;2023-06-14T13:27:05;7.13;;;2.10;;
21697;SDS011;11010;49.548;11.926;2023-06-14T13:29:33;11.98;;;2.10;;
21697;SDS011;11010;49.548;11.926;2023-06-14T13:32:03;6.97;;;2.15;;
21697;SDS011;11010;49.548;11.926;2023-06-14T13:34:31;6.57;;;2.05;;
21697;SDS011;11010;49.548;11.926;2023-06-14T13:36:59;7.40;;;2.10;;
21697;SDS011;11010;49.548;11.926;2023-06-14T13:39:26;6.63;;;2.20;;
21697;SDS011;11010;49.548;11.926;2023-06-14T13:41:54;7.15;;;2.05;;
21697;SDS011;11010;49.548;11.926;2023-06-14T13:44:22;8.75;;;2.42;;
21697;SDS011;11010;49.548;11.926;2023-06-14T13:46:51;7.05;;;2.30;;
21697;SDS011;11010;49.548;11.926;2023-06-14T13:49:19;6.53;;;2.10;;
21697;SDS011;11010;49.548;11.926;2023-06-14T13:51:47;6.65;;;2.08;;
21697;SDS011;11010;49.548;11.926;2023-06-14T13:54:18;7.05;;;1.90;;
21697;SDS011;11010;49.548;11.926;2023-06-14T13:56:47;7.00;;;2.00;;
21697;SDS011;11010;49.548;11.926;2023-06-14T13:59:15;6.20;;;2.10;;
21697;SDS011;11010;49.548;11.926;2023-06-14T14:01:42;6.72;;;2.03;;
21697;SDS011;11010;49.548;11.926;2023-06-14T14:04:10;8.30;;;2.10;;
21697;SDS011;11010;49.548;11.926;2023-06-14T14:06:38;7.00;;;2.10;;
21697;SDS011;11010;49.548;11.926;2023-06-14T14:09:07;6.97;;;1.95;;
21697;SDS011;11010;49.548;11.926;2023-06-14T14:11:35;6.18;;;2.00;;
21697;SDS011;11010;49.548;11.926;2023-06-14T14:14:03;9.07;;;2.00;;
21697;SDS011;11010;49.548;11.926;2023-06-14T14:16:31;6.60;;;1.88;;
21697;SDS011;11010;49.548;11.926;2023-06-14T14:18:59;6.93;;;2.13;;
21697;SDS011;11010;49.548;11.926;2023-06-14T14:21:28;7.32;;;1.98;;
21697;SDS011;11010;49.548;11.926;2023-06-14T14:23:56;6.45;;;1.98;;
21697;SDS011;11010;49.548;11.926;2023-06-14T14:26:23;7.90;;;1.90;;
21697;SDS011;11010;49.548;11.926;2023-06-14T14:28:51;6.68;;;1.90;;
21697;SDS011;11010;49.548;11.926;2023-06-14T14:31:19;7.53;;;2.00;;
21697;SDS011;11010;49.548;11.926;2023-06-14T14:33:46;5.80;;;1.80;;
21697;SDS011;11010;49.548;11.926;2023-06-14T14:36:14;7.60;;;2.20;;
21697;SDS011;11010;49.548;11.926;2023-06-14T14:38:42;6.63;;;2.00;;
21697;SDS011;11010;49.548;11.926;2023-06-14T14:41:09;6.10;;;1.90;;
21697;SDS011;11010;49.548;11.926;2023-06-14T14:43:37;7.63;;;2.00;;
21697;SDS011;11010;49.548;11.926;2023-06-14T14:46:04;7.00;;;2.35;;
21697;SDS011;11010;49.548;11.926;2023-06-14T14:48:32;6.65;;;2.20;;
21697;SDS011;11010;49.548;11.926;2023-06-14T14:51:00;6.68;;;2.28;;
21697;SDS011;11010;49.548;11.926;2023-06-14T14:53:28;6.35;;;2.03;;
21697;SDS011;11010;49.548;11.926;2023-06-14T14:55:56;6.85;;;1.98;;
21697;SDS011;11010;49.548;11.926;2023-06-14T14:58:24;7.07;;;2.00;;
21697;SDS011;11010;49.548;11.926;2023-06-14T15:00:52;6.50;;;1.83;;
21697;SDS011;11010;49.548;11.926;2023-06-14T15:03:20;6.25;;;2.08;;
21697;SDS011;11010;49.548;11.926;2023-06-14T15:05:47;6.70;;;2.08;;
21697;SDS011;11010;49.548;11.926;2023-06-14T15:08:15;8.10;;;1.98;;
21697;SDS011;11010;49.548;11.926;2023-06-14T15:10:42;6.80;;;1.98;;
21697;SDS011;11010;49.548;11.926;2023-06-14T15:13:11;5.85;;;1.77;;
21697;SDS011;11010;49.548;11.926;2023-06-14T15:15:39;6.57;;;1.83;;
21697;SDS011;11010;49.548;11.926;2023-06-14T15:18:06;7.00;;;1.85;;
21697;SDS011;11010;49.548;11.926;2023-06-14T15:20:35;6.47;;;1.98;;